หน้าหลัก
METAR-TAF:

METAR-TAF

ท่าอากาศยาน :

ซานเตียโก, ชิลี

ละติจูด: 33-27-23S, ลองจิจูด: 070-32-48W, ความสูง: 646 ม.

การสังเกตสภาพอากาศปัจจุบัน

รายงานได้ทำขึ้นเมื่อ 54 นาทีที่แล้ว ณ เวลา 18:00 UTC
ลม 7 นอตจากตะวันตกเฉียงใต้, แปรผันระหว่างใต้/ตะวันตกเฉียงใต้ และตะวันตก/ตะวันตกเฉียงเหนือ
อุณหภูมิ 15°C
ความชื้น 59%
ความกดอากาศ 1016 hPa
ทัศนวิสัย: 3000 ม.
เมฆหมอก,

METAR: SCTB 201800Z 23007KT 210V300 3000 HZ NSC 15/07 Q1016

เวลา: 14:54 (18:54 UTC)


TAF: หายไป

สังเกตการณ์สภาพอากาศและพยากรณ์อากาศของสนามบินมากกว่า 4000 แห่ง (รายงาน METAR และ TAF).

สถานีที่ดูได้จะแสดงไว้ด้วยจุดสีเหลืองและสีแดงบนแผนที่.

เลื่อนเมาส์ไปเหนือจุดเพื่อดูชื่อสถานี.

แล้วคลิกเพื่อดูสังเกตการณ์และการพยากรณ์สภาพอากาศ.

ในการเปลี่ยนแผนที่: คลิกที่ปุ่มสีเขียวที่มีกากบาทสีดำเพื่อซูมเข้า; ที่ปุ่มสีเขียวที่มีขีดเพื่อซูมออก; หรือที่ลูกศรสีเขียวเพื่อไปยังแผนที่ที่อยู่ติดกัน.


METAR-TAF: